Elk Horn, Idaho
Current Conditions -  °F | °C
As of 6:47 AM on Sunday 23 Nov 2014 (Local Time) from KSUN Reporting Station
Clear Clear  
Wind Chill: 18°   Ceiling: Unl
Heat Index: 27°   Visibility: 10mi
Dew Point: 14°   Wind: 8mph
Humidity: 59%   Direction: 330°NNW
Pressure: 30.11"   Gusts: NA
Location:  43.6966°N, 114.35°W
Report Text: KSUN 231347Z 33007KT 10SM SKC M03/M10 A3011
Loading
Personal Weather Stations






























Interactive Weather Map New forecast layout! Learn more

10-Day Weather Forecast

Advertisements
Track Severe Weather on mobile